Terminal Aerodrome Forecast
Issued by NWS

Home | Current Version | Previous Version | Text Only | Print | Product List | Glossary On
Versions: 1 2 3 4 5 6 7 8 9 10 11 12 13
000
FTUS45 KABQ 231143
TAFLVS
TAF
KLVS 231143Z 2312/2412 19012G20KT P6SM -SHRA BKN020 OVC035
     FM231500 19015G23KT 6SM -SHRA BKN035 OVC050
      TEMPO 2316/2320 5SM TSRA BKN030CB
     FM232000 19018G25KT 6SM SHRA BKN020 OVC050
     FM240000 19013KT P6SM VCSH SCT025 OVC040
     FM240500 19010KT P6SM BKN030=

USA.gov is the U.S. government's official web portal to all federal, state and local government web resources and services.